createdAt,value
2023-11-23T00:01:48.666Z,59.30
2023-11-23T00:04:16.523Z,58.70
2023-11-23T00:06:45.117Z,58.80
2023-11-23T00:09:13.019Z,58.60
2023-11-23T00:11:41.184Z,58.30
2023-11-23T00:14:08.998Z,58.10
2023-11-23T00:16:36.791Z,57.80
2023-11-23T00:19:06.272Z,57.30
2023-11-23T00:21:34.019Z,56.80
2023-11-23T00:24:02.032Z,56.80
2023-11-23T00:26:29.794Z,56.50
2023-11-23T00:29:00.708Z,56.20
2023-11-23T00:31:28.469Z,56.00
2023-11-23T00:33:56.334Z,55.70
2023-11-23T00:36:25.461Z,55.00
2023-11-23T00:38:53.224Z,55.10
2023-11-23T00:41:21.014Z,55.00
2023-11-23T00:43:48.705Z,54.70
2023-11-23T00:46:16.842Z,54.70
2023-11-23T00:48:44.589Z,54.50
2023-11-23T00:51:12.409Z,54.20
2023-11-23T00:53:41.593Z,54.10
2023-11-23T00:56:09.393Z,53.80
2023-11-23T00:58:37.267Z,53.80
2023-11-23T01:01:05.485Z,53.50
2023-11-23T01:03:33.683Z,53.20
2023-11-23T01:06:01.951Z,53.10
2023-11-23T01:08:30.036Z,52.90
2023-11-23T01:11:00.386Z,52.70
2023-11-23T01:13:28.243Z,52.40
2023-11-23T01:15:56.589Z,52.30
2023-11-23T01:18:25.144Z,52.10
2023-11-23T01:20:52.973Z,52.30
2023-11-23T01:23:20.786Z,51.90
2023-11-23T01:25:48.514Z,51.70
2023-11-23T01:28:17.544Z,51.60
2023-11-23T01:30:45.856Z,51.20
2023-11-23T01:33:13.743Z,51.30
2023-11-23T01:35:41.586Z,51.00
2023-11-23T01:38:10.249Z,51.10
2023-11-23T01:40:38.946Z,51.00
2023-11-23T01:43:09.144Z,50.70
2023-11-23T01:45:38.259Z,50.50
2023-11-23T01:48:06.830Z,50.30
2023-11-23T01:50:35.730Z,50.10
2023-11-23T01:53:04.562Z,50.30
2023-11-23T01:55:32.242Z,49.80
2023-11-23T01:58:00.372Z,50.00
2023-11-23T02:00:28.679Z,49.90
2023-11-23T02:02:58.135Z,49.60
2023-11-23T02:05:25.964Z,49.60
2023-11-23T02:07:53.695Z,49.50
2023-11-23T02:10:21.484Z,49.40
2023-11-23T02:12:49.419Z,48.90
2023-11-23T02:15:18.971Z,49.20
2023-11-23T02:17:47.196Z,48.90
2023-11-23T02:20:16.351Z,48.70
2023-11-23T02:22:44.070Z,48.60
2023-11-23T02:25:14.002Z,48.40
2023-11-23T02:27:42.719Z,48.20
2023-11-23T02:30:11.837Z,48.10
2023-11-23T02:32:42.612Z,48.20
2023-11-23T02:35:11.095Z,47.90
2023-11-23T02:37:38.858Z,47.60
2023-11-23T02:40:07.736Z,47.70
2023-11-23T02:42:36.830Z,47.40
2023-11-23T02:45:05.511Z,47.20
2023-11-23T02:47:33.390Z,47.30
2023-11-23T02:50:01.321Z,47.30
2023-11-23T02:52:29.614Z,47.20
2023-11-23T02:54:57.369Z,47.20
2023-11-23T02:57:25.067Z,47.00
2023-11-23T02:59:54.147Z,46.90
2023-11-23T03:02:22.025Z,46.90
2023-11-23T03:04:49.815Z,47.10
2023-11-23T03:07:19.105Z,46.80
2023-11-23T03:09:47.230Z,46.90
2023-11-23T03:12:15.524Z,47.00
2023-11-23T03:14:43.396Z,46.80
2023-11-23T03:17:12.599Z,46.80
2023-11-23T03:19:40.561Z,46.70
2023-11-23T03:22:09.310Z,46.80
2023-11-23T03:24:37.037Z,46.90
2023-11-23T03:27:05.548Z,46.90
2023-11-23T03:29:34.724Z,46.80
2023-11-23T03:32:03.429Z,46.80
2023-11-23T03:34:32.602Z,46.80
2023-11-23T03:37:00.350Z,46.80
2023-11-23T03:39:28.086Z,47.00
2023-11-23T03:41:56.607Z,47.00
2023-11-23T03:44:24.428Z,47.00
2023-11-23T03:46:53.837Z,47.00
2023-11-23T03:49:21.628Z,47.10
2023-11-23T03:51:50.830Z,47.00
2023-11-23T03:54:18.711Z,47.70
2023-11-23T03:56:47.360Z,47.10
2023-11-23T03:59:15.155Z,47.00
2023-11-23T04:01:46.773Z,47.10
2023-11-23T04:04:14.599Z,47.10
2023-11-23T04:06:42.620Z,47.10
2023-11-23T04:09:11.876Z,47.10
2023-11-23T04:11:39.660Z,47.20
2023-11-23T04:14:07.748Z,47.10
2023-11-23T04:16:35.527Z,47.30
2023-11-23T04:19:03.287Z,47.20
2023-11-23T04:21:30.991Z,47.40
2023-11-23T04:23:58.729Z,47.50
2023-11-23T04:26:27.842Z,47.50
2023-11-23T04:28:55.647Z,47.50
2023-11-23T04:31:23.356Z,47.50
2023-11-23T04:33:51.152Z,47.50
2023-11-23T04:36:18.984Z,47.50
2023-11-23T04:38:46.862Z,47.60
2023-11-23T04:41:14.582Z,47.70
2023-11-23T04:43:43.654Z,47.80
2023-11-23T04:46:11.376Z,47.60
2023-11-23T04:48:39.155Z,47.80
2023-11-23T04:51:07.653Z,47.90
2023-11-23T04:53:35.393Z,48.00
2023-11-23T04:56:03.161Z,47.90
2023-11-23T04:58:30.883Z,48.10
2023-11-23T05:01:00.984Z,48.00
2023-11-23T05:03:29.848Z,48.10
2023-11-23T05:05:57.725Z,48.10
2023-11-23T05:08:25.487Z,48.00
2023-11-23T05:10:54.458Z,48.00
2023-11-23T05:13:22.151Z,48.10
2023-11-23T05:15:49.910Z,48.10
2023-11-23T05:18:19.080Z,48.10
2023-11-23T05:20:46.950Z,48.00
2023-11-23T05:23:14.684Z,48.10
2023-11-23T05:25:42.562Z,48.10
2023-11-23T05:28:10.283Z,48.00
2023-11-23T05:30:39.762Z,48.10
2023-11-23T05:33:07.584Z,48.20
2023-11-23T05:35:36.712Z,48.10
2023-11-23T05:38:04.425Z,48.10
2023-11-23T05:40:32.157Z,48.30
2023-11-23T05:43:05.382Z,48.30
2023-11-23T05:45:35.000Z,48.20
2023-11-23T05:48:02.940Z,48.40
2023-11-23T05:50:31.247Z,48.50
2023-11-23T05:53:00.645Z,48.40
2023-11-23T05:55:28.421Z,48.40
2023-11-23T05:57:56.160Z,48.70
2023-11-23T06:00:23.966Z,48.80
2023-11-23T06:02:51.745Z,48.90
2023-11-23T06:05:19.989Z,49.00
2023-11-23T06:07:47.773Z,49.10
2023-11-23T06:10:17.631Z,49.20
2023-11-23T06:12:45.345Z,49.20
2023-11-23T06:15:13.088Z,49.30
2023-11-23T06:17:40.926Z,49.30
2023-11-23T06:20:10.095Z,49.30
2023-11-23T06:22:37.826Z,49.40
2023-11-23T06:25:06.146Z,49.30
2023-11-23T06:27:35.438Z,49.30
2023-11-23T06:30:03.740Z,49.50
2023-11-23T06:32:31.578Z,49.30
2023-11-23T06:34:59.631Z,49.30
2023-11-23T06:37:27.405Z,49.30
2023-11-23T06:39:57.201Z,49.50
2023-11-23T06:42:25.110Z,49.70
2023-11-23T06:44:55.072Z,49.90
2023-11-23T06:47:22.843Z,49.80
2023-11-23T06:49:50.579Z,50.00
2023-11-23T06:52:18.458Z,50.10
2023-11-23T06:54:46.245Z,50.20
2023-11-23T06:57:14.143Z,50.10
2023-11-23T06:59:41.849Z,50.40
2023-11-23T07:02:11.153Z,50.40
2023-11-23T07:04:39.905Z,50.40
2023-11-23T07:07:07.995Z,50.50
2023-11-23T07:09:36.295Z,50.60
2023-11-23T07:12:05.211Z,50.70
2023-11-23T07:14:33.029Z,50.80
2023-11-23T07:17:00.793Z,50.80
2023-11-23T07:19:30.439Z,50.90
2023-11-23T07:21:59.282Z,50.90
2023-11-23T07:24:27.002Z,50.90
2023-11-23T07:26:54.940Z,51.00
2023-11-23T07:29:22.730Z,51.00
2023-11-23T07:31:50.571Z,51.00
2023-11-23T07:34:18.356Z,51.10
2023-11-23T07:36:47.774Z,51.20
2023-11-23T07:39:17.936Z,51.30
2023-11-23T07:41:45.922Z,51.30
2023-11-23T07:44:13.646Z,51.40
2023-11-23T07:46:42.031Z,51.50
2023-11-23T07:49:09.987Z,51.50
2023-11-23T07:51:37.795Z,51.50
2023-11-23T07:54:07.414Z,51.60
2023-11-23T07:56:35.235Z,51.60
2023-11-23T07:59:03.555Z,51.60
2023-11-23T08:01:31.318Z,51.70
2023-11-23T08:03:59.153Z,51.80
2023-11-23T08:06:27.002Z,51.90
2023-11-23T08:08:54.920Z,51.90
2023-11-23T08:11:24.053Z,52.00
2023-11-23T08:13:51.827Z,52.10
2023-11-23T08:16:20.209Z,52.00
2023-11-23T08:18:50.308Z,52.10
2023-11-23T08:21:18.391Z,52.00
2023-11-23T08:23:46.259Z,52.10
2023-11-23T08:26:15.096Z,52.00
2023-11-23T08:28:44.215Z,52.10
2023-11-23T08:31:12.172Z,52.00
2023-11-23T08:33:39.987Z,52.00
2023-11-23T08:36:08.787Z,52.00
2023-11-23T08:38:38.184Z,51.90
2023-11-23T08:41:06.741Z,51.90
2023-11-23T08:43:38.029Z,52.00
2023-11-23T08:46:08.146Z,52.00
2023-11-23T08:48:35.918Z,52.10
2023-11-23T08:51:04.860Z,52.20
2023-11-23T08:53:32.731Z,52.20
2023-11-23T08:56:00.795Z,52.20
2023-11-23T08:58:28.585Z,52.20
2023-11-23T09:00:56.348Z,52.30
2023-11-23T09:03:25.551Z,52.40
2023-11-23T09:05:53.506Z,52.30
2023-11-23T09:08:21.634Z,52.30
2023-11-23T09:10:49.667Z,52.50
2023-11-23T09:13:18.582Z,52.50
2023-11-23T09:15:46.365Z,52.60
2023-11-23T09:18:14.221Z,52.60
2023-11-23T09:20:43.442Z,52.60
2023-11-23T09:23:11.158Z,52.60
2023-11-23T09:25:39.489Z,52.70
2023-11-23T09:28:07.250Z,52.80
2023-11-23T09:30:35.103Z,52.90
2023-11-23T09:33:02.916Z,52.80
2023-11-23T09:35:30.710Z,52.90
2023-11-23T09:37:59.762Z,53.00
2023-11-23T09:40:27.595Z,53.00
2023-11-23T09:42:55.388Z,53.20
2023-11-23T09:45:26.552Z,53.30
2023-11-23T09:47:54.840Z,53.40
2023-11-23T09:50:22.769Z,53.60
2023-11-23T09:52:50.546Z,53.60
2023-11-23T09:55:19.651Z,53.80
2023-11-23T09:57:49.203Z,53.90
2023-11-23T10:00:19.605Z,54.00
2023-11-23T10:02:50.628Z,54.00
2023-11-23T10:05:18.994Z,54.10
2023-11-23T10:07:48.189Z,54.20
2023-11-23T10:10:16.315Z,54.30
2023-11-23T10:12:45.985Z,54.40
2023-11-23T10:15:14.092Z,54.40
2023-11-23T10:17:42.243Z,54.40
2023-11-23T10:20:11.678Z,54.50
2023-11-23T10:22:40.268Z,54.60
2023-11-23T10:25:10.360Z,54.60
2023-11-23T10:27:38.846Z,54.70
2023-11-23T10:30:10.432Z,54.70
2023-11-23T10:32:38.313Z,54.80
2023-11-23T10:35:10.682Z,54.90
2023-11-23T10:37:39.204Z,54.90
2023-11-23T10:40:08.408Z,55.00
2023-11-23T10:42:36.590Z,55.00
2023-11-23T10:45:04.827Z,55.00
2023-11-23T10:47:34.006Z,55.10
2023-11-23T10:50:02.025Z,55.00
2023-11-23T10:52:30.405Z,55.10
2023-11-23T10:54:58.117Z,55.20
2023-11-23T10:57:27.537Z,55.10
2023-11-23T10:59:56.289Z,55.30
2023-11-23T11:02:24.627Z,55.20
2023-11-23T11:04:55.129Z,55.30
2023-11-23T11:07:28.871Z,55.30
2023-11-23T11:10:00.298Z,55.30
2023-11-23T11:12:37.438Z,55.50
2023-11-23T11:15:07.481Z,55.60
2023-11-23T11:17:40.052Z,55.70
2023-11-23T11:20:13.769Z,55.60
2023-11-23T11:22:41.802Z,55.80
2023-11-23T11:25:09.612Z,55.80
2023-11-23T11:27:37.561Z,55.90
2023-11-23T11:30:06.862Z,56.10
2023-11-23T11:32:35.104Z,56.10
2023-11-23T11:35:03.987Z,56.20
2023-11-23T11:37:34.215Z,56.20
2023-11-23T11:40:02.351Z,56.10
2023-11-23T11:42:31.022Z,56.20
2023-11-23T11:44:59.295Z,56.20
2023-11-23T11:47:29.083Z,56.20
2023-11-23T11:49:58.530Z,56.10
2023-11-23T11:52:27.429Z,56.20
2023-11-23T11:54:56.801Z,56.10
2023-11-23T11:57:24.609Z,56.20
2023-11-23T11:59:52.361Z,56.40
2023-11-23T12:02:20.356Z,56.60
2023-11-23T12:04:48.864Z,56.70
2023-11-23T12:07:16.627Z,56.80
2023-11-23T12:09:47.097Z,56.50
2023-11-23T12:12:19.222Z,56.50
2023-11-23T12:14:47.341Z,56.30
2023-11-23T12:17:15.379Z,56.10
2023-11-23T12:19:52.421Z,56.00
2023-11-23T12:22:22.313Z,55.40
2023-11-23T12:24:50.104Z,55.80
2023-11-23T12:27:19.715Z,54.90
2023-11-23T12:29:47.525Z,53.90
2023-11-23T12:32:15.869Z,54.40
2023-11-23T12:34:44.435Z,53.80
2023-11-23T12:37:12.236Z,52.70
2023-11-23T12:39:40.319Z,52.00
2023-11-23T12:42:08.353Z,51.70
2023-11-23T12:44:37.455Z,51.10
2023-11-23T12:47:05.534Z,50.60
2023-11-23T12:49:33.386Z,50.40
2023-11-23T12:52:02.422Z,50.10
2023-11-23T12:54:31.345Z,49.70
2023-11-23T12:56:59.476Z,49.50
2023-11-23T12:59:27.326Z,49.40
2023-11-23T13:01:59.953Z,49.00
2023-11-23T13:04:30.856Z,49.10
2023-11-23T13:06:59.306Z,49.30
2023-11-23T13:09:28.802Z,49.20
2023-11-23T13:11:59.312Z,48.90
2023-11-23T13:14:27.151Z,49.00
2023-11-23T13:16:57.854Z,48.70
2023-11-23T13:19:30.735Z,48.70
2023-11-23T13:22:05.774Z,49.20
2023-11-23T13:24:33.723Z,49.50
2023-11-23T13:27:02.325Z,49.50
2023-11-23T13:29:30.191Z,50.00
2023-11-23T13:31:59.512Z,50.20
2023-11-23T13:34:27.852Z,50.50
2023-11-23T13:36:55.902Z,50.60
2023-11-23T13:39:23.716Z,50.80
2023-11-23T13:41:51.536Z,51.10
2023-11-23T13:44:19.629Z,51.50
2023-11-23T13:46:47.949Z,51.90
2023-11-23T13:49:18.110Z,52.40
2023-11-23T13:51:46.874Z,52.40
2023-11-23T13:54:14.854Z,52.90
2023-11-23T13:56:44.069Z,52.70
2023-11-23T13:59:12.752Z,52.90
2023-11-23T14:01:40.958Z,52.90
2023-11-23T14:04:09.680Z,53.10
2023-11-23T14:06:40.176Z,53.40
2023-11-23T14:09:11.028Z,53.70
2023-11-23T14:11:39.406Z,54.30
2023-11-23T14:14:09.293Z,54.70
2023-11-23T14:16:37.554Z,54.80
2023-11-23T14:19:07.483Z,54.70
2023-11-23T14:21:35.289Z,55.20
2023-11-23T14:24:04.835Z,56.00
2023-11-23T14:26:33.548Z,56.20
2023-11-23T14:29:01.575Z,56.50
2023-11-23T14:31:29.484Z,56.70
2023-11-23T14:33:57.322Z,56.90
2023-11-23T14:36:25.103Z,57.20
2023-11-23T14:38:54.988Z,55.10
2023-11-23T14:41:25.289Z,53.50
2023-11-23T14:43:53.717Z,52.00
2023-11-23T14:46:22.383Z,51.00
2023-11-23T14:48:50.256Z,50.50
2023-11-23T14:51:19.582Z,49.50
2023-11-23T14:53:51.028Z,50.10
2023-11-23T14:56:21.816Z,49.20
2023-11-23T14:58:51.504Z,48.40
2023-11-23T15:01:19.965Z,48.00
2023-11-23T15:03:47.944Z,48.00
2023-11-23T15:06:17.323Z,47.60
2023-11-23T15:08:45.100Z,48.20
2023-11-23T15:11:15.935Z,48.30
2023-11-23T15:13:45.229Z,48.90
2023-11-23T15:16:15.540Z,49.60
2023-11-23T15:18:43.436Z,49.10
2023-11-23T15:21:11.177Z,48.90
2023-11-23T15:23:38.998Z,48.70
2023-11-23T15:26:08.667Z,48.60
2023-11-23T15:28:36.490Z,48.10
2023-11-23T15:31:04.512Z,48.30
2023-11-23T15:33:35.072Z,48.70
2023-11-23T15:36:06.854Z,48.80
2023-11-23T15:38:35.627Z,48.30
2023-11-23T15:41:04.572Z,48.20
2023-11-23T15:43:32.528Z,48.10
2023-11-23T15:46:00.531Z,49.40
2023-11-23T15:48:28.354Z,49.80
2023-11-23T15:50:58.152Z,50.30
2023-11-23T15:53:26.315Z,50.90
2023-11-23T15:55:55.659Z,51.20
2023-11-23T15:58:23.680Z,51.40
2023-11-23T16:00:53.731Z,50.60
2023-11-23T16:03:21.637Z,50.60
2023-11-23T16:05:49.612Z,51.00
2023-11-23T16:08:18.906Z,49.40
2023-11-23T16:10:46.685Z,49.80
2023-11-23T16:13:19.382Z,49.10
2023-11-23T16:15:47.334Z,49.00
2023-11-23T16:18:15.388Z,49.40
2023-11-23T16:20:46.796Z,49.20
2023-11-23T16:23:14.626Z,49.40
2023-11-23T16:25:43.644Z,48.70
2023-11-23T16:28:11.447Z,48.80
2023-11-23T16:30:39.729Z,48.30
2023-11-23T16:33:07.692Z,48.20
2023-11-23T16:35:35.544Z,48.30
2023-11-23T16:38:04.679Z,47.80
2023-11-23T16:40:32.412Z,48.20
2023-11-23T16:43:02.340Z,48.50
2023-11-23T16:45:30.191Z,49.40
2023-11-23T16:47:58.088Z,49.70
2023-11-23T16:50:25.911Z,49.50
2023-11-23T16:52:53.673Z,49.50
2023-11-23T16:55:21.399Z,49.50
2023-11-23T16:57:51.711Z,48.70
2023-11-23T17:00:21.281Z,49.20
2023-11-23T17:02:49.132Z,50.10
2023-11-23T17:05:17.075Z,50.20
2023-11-23T17:07:44.863Z,50.70
2023-11-23T17:10:13.122Z,51.20
2023-11-23T17:12:44.022Z,51.40
2023-11-23T17:15:12.867Z,51.80
2023-11-23T17:17:46.547Z,52.10
2023-11-23T17:20:16.642Z,52.30
2023-11-23T17:22:44.810Z,52.50
2023-11-23T17:25:12.706Z,53.30
2023-11-23T17:27:42.697Z,53.90
2023-11-23T17:30:12.392Z,54.30
2023-11-23T17:32:43.261Z,55.00
2023-11-23T17:35:11.364Z,55.70
2023-11-23T17:37:39.780Z,56.70
2023-11-23T17:40:09.432Z,58.20
2023-11-23T17:42:37.352Z,59.90
2023-11-23T17:45:05.817Z,60.90
2023-11-23T17:47:33.647Z,63.30
2023-11-23T17:50:02.800Z,63.40
2023-11-23T17:52:30.911Z,64.80
2023-11-23T17:54:59.033Z,66.50
2023-11-23T17:57:26.822Z,67.20
2023-11-23T17:59:56.785Z,67.60
2023-11-23T18:02:25.128Z,68.40
2023-11-23T18:04:53.679Z,68.30
2023-11-23T18:07:22.890Z,70.20
2023-11-23T18:09:51.159Z,70.70
2023-11-23T18:12:19.530Z,71.90
2023-11-23T18:14:47.726Z,71.50
2023-11-23T18:17:15.555Z,70.80
2023-11-23T18:19:43.898Z,70.80
2023-11-23T18:22:11.695Z,71.40
2023-11-23T18:24:40.821Z,71.00
2023-11-23T18:27:12.376Z,71.90
2023-11-23T18:29:40.293Z,70.30
2023-11-23T18:32:09.542Z,71.00
2023-11-23T18:34:37.318Z,71.10
2023-11-23T18:37:05.237Z,71.60
2023-11-23T18:39:33.230Z,71.90
2023-11-23T18:42:02.410Z,73.70
2023-11-23T18:44:30.169Z,74.20
2023-11-23T18:46:58.054Z,73.20
2023-11-23T18:49:29.008Z,74.20
2023-11-23T18:51:56.831Z,74.00
2023-11-23T18:54:25.138Z,74.20
2023-11-23T18:56:52.969Z,73.50
2023-11-23T18:59:22.404Z,73.40
2023-11-23T19:01:50.462Z,74.00
2023-11-23T19:04:18.531Z,75.50
2023-11-23T19:06:46.515Z,76.90
2023-11-23T19:09:16.242Z,76.30
2023-11-23T19:11:44.170Z,75.50
2023-11-23T19:14:12.791Z,77.20
2023-11-23T19:16:42.572Z,77.20
2023-11-23T19:19:12.446Z,76.60
2023-11-23T19:21:40.914Z,76.70
2023-11-23T19:24:10.118Z,76.60
2023-11-23T19:26:38.489Z,75.70
2023-11-23T19:29:07.474Z,75.70
2023-11-23T19:31:36.308Z,77.00
2023-11-23T19:34:06.809Z,78.70
2023-11-23T19:36:35.675Z,79.20
2023-11-23T19:39:04.163Z,78.10
2023-11-23T19:41:32.024Z,78.10
2023-11-23T19:44:00.402Z,77.10
2023-11-23T19:46:29.439Z,76.80
2023-11-23T19:48:57.612Z,76.50
2023-11-23T19:51:30.109Z,75.60
2023-11-23T19:53:58.351Z,75.40
2023-11-23T19:56:26.476Z,75.30
2023-11-23T19:58:54.569Z,75.00
2023-11-23T20:01:22.394Z,74.90
2023-11-23T20:03:50.230Z,74.00
2023-11-23T20:06:18.313Z,73.60
2023-11-23T20:08:47.463Z,69.70
2023-11-23T20:11:15.302Z,66.80
2023-11-23T20:13:43.051Z,66.90
2023-11-23T20:16:21.584Z,68.20
2023-11-23T20:18:57.475Z,69.60
2023-11-23T20:21:25.371Z,70.70
2023-11-23T20:23:54.440Z,70.70
2023-11-23T20:26:22.942Z,71.00
2023-11-23T20:28:50.747Z,71.70
2023-11-23T20:31:18.619Z,72.20
2023-11-23T20:33:46.999Z,72.80
2023-11-23T20:36:15.011Z,73.30
2023-11-23T20:38:44.081Z,73.90
2023-11-23T20:41:14.445Z,74.30
2023-11-23T20:43:42.707Z,75.10
2023-11-23T20:46:12.862Z,75.90
2023-11-23T20:48:40.778Z,76.70
2023-11-23T20:51:08.613Z,77.20
2023-11-23T20:53:36.437Z,78.30
2023-11-23T20:56:04.948Z,79.50
2023-11-23T20:58:34.812Z,80.70
2023-11-23T21:01:03.398Z,82.50
2023-11-23T21:03:31.835Z,82.80
2023-11-23T21:06:00.449Z,84.20
2023-11-23T21:08:28.578Z,85.00
2023-11-23T21:10:56.630Z,86.10
2023-11-23T21:13:24.376Z,87.00
2023-11-23T21:15:57.591Z,87.70
2023-11-23T21:18:25.473Z,88.10
2023-11-23T21:20:53.332Z,88.80
2023-11-23T21:23:21.378Z,89.20
2023-11-23T21:25:49.176Z,89.50
2023-11-23T21:28:16.865Z,89.80
2023-11-23T21:30:44.735Z,89.90
2023-11-23T21:33:13.905Z,90.00
2023-11-23T21:35:41.738Z,90.10
2023-11-23T21:38:09.496Z,90.20
2023-11-23T21:40:39.083Z,90.30
2023-11-23T21:43:06.850Z,90.50
2023-11-23T21:45:34.914Z,90.50
2023-11-23T21:48:02.678Z,90.50
2023-11-23T21:50:34.453Z,90.60
2023-11-23T21:53:02.229Z,90.80
2023-11-23T21:55:30.887Z,90.80
2023-11-23T21:57:59.432Z,90.90
2023-11-23T22:00:27.214Z,90.90
2023-11-23T22:02:55.072Z,90.90
2023-11-23T22:05:22.924Z,91.00
2023-11-23T22:07:53.476Z,91.10
2023-11-23T22:10:22.985Z,91.00
2023-11-23T22:12:51.425Z,90.90
2023-11-23T22:15:19.430Z,91.00
2023-11-23T22:17:47.647Z,90.90
2023-11-23T22:20:16.264Z,90.90
2023-11-23T22:22:44.452Z,90.90
2023-11-23T22:25:16.922Z,90.90
2023-11-23T22:27:45.594Z,90.90
2023-11-23T22:30:14.523Z,90.80
2023-11-23T22:32:42.628Z,90.90
2023-11-23T22:35:11.799Z,90.80
2023-11-23T22:37:40.271Z,90.90
2023-11-23T22:40:10.349Z,90.80
2023-11-23T22:42:40.797Z,90.90
2023-11-23T22:45:10.878Z,90.80
2023-11-23T22:47:38.746Z,90.80
2023-11-23T22:50:08.025Z,90.80
2023-11-23T22:52:36.623Z,91.10
2023-11-23T22:55:04.670Z,90.60
2023-11-23T22:57:33.288Z,90.60
2023-11-23T23:00:02.449Z,90.70
2023-11-23T23:02:30.393Z,90.70
2023-11-23T23:04:58.573Z,90.70
2023-11-23T23:07:27.192Z,90.70
2023-11-23T23:09:54.957Z,90.60
2023-11-23T23:12:22.790Z,90.60
2023-11-23T23:14:50.571Z,90.50
2023-11-23T23:17:20.134Z,90.50
2023-11-23T23:19:47.882Z,90.50
2023-11-23T23:22:24.321Z,90.40
2023-11-23T23:24:56.593Z,90.40
2023-11-23T23:27:24.490Z,90.30
2023-11-23T23:29:52.246Z,90.20
2023-11-23T23:32:24.459Z,90.30
2023-11-23T23:34:52.448Z,90.30
2023-11-23T23:37:20.225Z,90.20
2023-11-23T23:39:48.205Z,90.10
2023-11-23T23:42:17.048Z,90.10
2023-11-23T23:44:45.937Z,90.10
2023-11-23T23:47:14.477Z,90.20
2023-11-23T23:49:43.858Z,90.00
2023-11-23T23:52:11.617Z,90.00
2023-11-23T23:54:39.965Z,90.00
2023-11-23T23:57:07.694Z,89.90
2023-11-23T23:59:36.090Z,89.90
